Sao Joaquim da Barra, Brazil
Current Conditions -  °F | °C
As of 8:00 PM on Sunday 21 Dec 2014 (Local Time) from SBRP Reporting Station
Overcast Overcast  
Wind Chill: 72°   Ceiling: 500
Heat Index: 72°   Visibility: 4mi
Dew Point: 70°   Wind: 7mph
Humidity: 94%   Direction: 360°N
Pressure: 29.88"   Gusts: NA
Location:  20.58°S, 47.86°W
Report Text: SBRP 212200Z 36006KT 7000 BKN005 OVC040 22/21 Q1012
Loading
Personal Weather Stations






























Interactive Weather Map New forecast layout! Learn more

10-Day Weather Forecast

Advertisements
Track Severe Weather on mobile